sensor_id;sensor_type;location;lat;lon;timestamp;temperature;humidity
24152;DHT22;12311;50.866;4.332;2023-11-19T00:02:23;13.90;99.90
24152;DHT22;12311;50.866;4.332;2023-11-19T00:04:49;13.90;99.90
24152;DHT22;12311;50.866;4.332;2023-11-19T00:07:15;13.90;99.90
24152;DHT22;12311;50.866;4.332;2023-11-19T00:09:41;13.90;99.90
24152;DHT22;12311;50.866;4.332;2023-11-19T00:12:07;13.90;99.90
24152;DHT22;12311;50.866;4.332;2023-11-19T00:14:33;13.90;99.90
24152;DHT22;12311;50.866;4.332;2023-11-19T00:17:00;13.90;99.90
24152;DHT22;12311;50.866;4.332;2023-11-19T00:19:26;14.00;99.90
24152;DHT22;12311;50.866;4.332;2023-11-19T00:21:52;14.00;99.90
24152;DHT22;12311;50.866;4.332;2023-11-19T00:24:18;13.90;99.90
24152;DHT22;12311;50.866;4.332;2023-11-19T00:26:44;13.90;99.90
24152;DHT22;12311;50.866;4.332;2023-11-19T00:29:10;13.90;99.90
24152;DHT22;12311;50.866;4.332;2023-11-19T00:31:36;13.90;99.90
24152;DHT22;12311;50.866;4.332;2023-11-19T00:34:02;13.90;99.90
24152;DHT22;12311;50.866;4.332;2023-11-19T00:36:28;14.00;99.90
24152;DHT22;12311;50.866;4.332;2023-11-19T00:38:54;13.90;99.90
24152;DHT22;12311;50.866;4.332;2023-11-19T00:41:20;13.90;99.90
24152;DHT22;12311;50.866;4.332;2023-11-19T00:43:46;13.90;99.90
24152;DHT22;12311;50.866;4.332;2023-11-19T00:46:12;14.00;99.90
24152;DHT22;12311;50.866;4.332;2023-11-19T00:48:39;13.90;99.90
24152;DHT22;12311;50.866;4.332;2023-11-19T00:51:05;13.90;99.90
24152;DHT22;12311;50.866;4.332;2023-11-19T00:53:31;14.00;99.90
24152;DHT22;12311;50.866;4.332;2023-11-19T00:55:57;14.00;99.90
24152;DHT22;12311;50.866;4.332;2023-11-19T00:58:23;13.90;99.90
24152;DHT22;12311;50.866;4.332;2023-11-19T01:00:49;13.90;99.90
24152;DHT22;12311;50.866;4.332;2023-11-19T01:03:15;13.90;99.90
24152;DHT22;12311;50.866;4.332;2023-11-19T01:05:43;14.00;99.90
24152;DHT22;12311;50.866;4.332;2023-11-19T01:08:10;13.90;99.90
24152;DHT22;12311;50.866;4.332;2023-11-19T01:10:39;13.90;99.90
24152;DHT22;12311;50.866;4.332;2023-11-19T01:13:05;13.90;99.90
24152;DHT22;12311;50.866;4.332;2023-11-19T01:15:33;13.90;99.90
24152;DHT22;12311;50.866;4.332;2023-11-19T01:17:59;13.90;99.90
24152;DHT22;12311;50.866;4.332;2023-11-19T01:20:24;14.00;99.90
24152;DHT22;12311;50.866;4.332;2023-11-19T01:22:51;13.90;99.90
24152;DHT22;12311;50.866;4.332;2023-11-19T01:25:17;13.90;99.90
24152;DHT22;12311;50.866;4.332;2023-11-19T01:27:43;14.00;99.90
24152;DHT22;12311;50.866;4.332;2023-11-19T01:30:09;13.90;99.90
24152;DHT22;12311;50.866;4.332;2023-11-19T01:32:38;13.90;99.90
24152;DHT22;12311;50.866;4.332;2023-11-19T01:35:04;14.00;99.90
24152;DHT22;12311;50.866;4.332;2023-11-19T01:37:30;13.90;99.90
24152;DHT22;12311;50.866;4.332;2023-11-19T01:39:57;13.90;99.90
24152;DHT22;12311;50.866;4.332;2023-11-19T01:42:23;13.90;99.90
24152;DHT22;12311;50.866;4.332;2023-11-19T01:45:00;13.90;99.90
24152;DHT22;12311;50.866;4.332;2023-11-19T01:47:30;13.80;99.90
24152;DHT22;12311;50.866;4.332;2023-11-19T01:49:56;13.80;99.90
24152;DHT22;12311;50.866;4.332;2023-11-19T01:52:23;13.80;99.90
24152;DHT22;12311;50.866;4.332;2023-11-19T01:54:50;13.80;99.90
24152;DHT22;12311;50.866;4.332;2023-11-19T01:57:16;13.80;99.90
24152;DHT22;12311;50.866;4.332;2023-11-19T01:59:43;13.80;99.90
24152;DHT22;12311;50.866;4.332;2023-11-19T02:02:09;13.80;99.90
24152;DHT22;12311;50.866;4.332;2023-11-19T02:04:34;13.70;99.90
24152;DHT22;12311;50.866;4.332;2023-11-19T02:07:00;13.70;99.90
24152;DHT22;12311;50.866;4.332;2023-11-19T02:09:26;13.70;99.90
24152;DHT22;12311;50.866;4.332;2023-11-19T02:11:53;13.70;99.90
24152;DHT22;12311;50.866;4.332;2023-11-19T02:14:23;13.70;99.90
24152;DHT22;12311;50.866;4.332;2023-11-19T02:16:49;13.60;99.90
24152;DHT22;12311;50.866;4.332;2023-11-19T02:19:15;13.50;99.90
24152;DHT22;12311;50.866;4.332;2023-11-19T02:21:40;13.50;99.90
24152;DHT22;12311;50.866;4.332;2023-11-19T02:24:09;13.60;99.90
24152;DHT22;12311;50.866;4.332;2023-11-19T02:27:02;13.50;99.90
24152;DHT22;12311;50.866;4.332;2023-11-19T02:29:28;13.50;99.90
24152;DHT22;12311;50.866;4.332;2023-11-19T02:31:54;13.50;99.90
24152;DHT22;12311;50.866;4.332;2023-11-19T02:34:20;13.60;99.90
24152;DHT22;12311;50.866;4.332;2023-11-19T02:36:47;13.50;99.90
24152;DHT22;12311;50.866;4.332;2023-11-19T02:39:13;13.50;99.90
24152;DHT22;12311;50.866;4.332;2023-11-19T02:41:39;13.50;99.90
24152;DHT22;12311;50.866;4.332;2023-11-19T02:44:06;13.50;99.90
24152;DHT22;12311;50.866;4.332;2023-11-19T02:46:32;13.50;99.90
24152;DHT22;12311;50.866;4.332;2023-11-19T02:48:57;13.50;99.90
24152;DHT22;12311;50.866;4.332;2023-11-19T02:51:23;13.50;99.90
24152;DHT22;12311;50.866;4.332;2023-11-19T02:53:49;13.40;99.90
24152;DHT22;12311;50.866;4.332;2023-11-19T02:56:14;13.40;99.90
24152;DHT22;12311;50.866;4.332;2023-11-19T02:58:45;13.40;99.90
24152;DHT22;12311;50.866;4.332;2023-11-19T03:01:12;13.40;99.90
24152;DHT22;12311;50.866;4.332;2023-11-19T03:03:49;13.40;99.90
24152;DHT22;12311;50.866;4.332;2023-11-19T03:06:20;13.30;99.90
24152;DHT22;12311;50.866;4.332;2023-11-19T03:08:47;13.30;99.90
24152;DHT22;12311;50.866;4.332;2023-11-19T03:11:13;13.20;99.90
24152;DHT22;12311;50.866;4.332;2023-11-19T03:13:39;13.10;99.90
24152;DHT22;12311;50.866;4.332;2023-11-19T03:16:05;13.10;99.90
24152;DHT22;12311;50.866;4.332;2023-11-19T03:18:31;13.10;99.90
24152;DHT22;12311;50.866;4.332;2023-11-19T03:20:56;13.10;99.90
24152;DHT22;12311;50.866;4.332;2023-11-19T03:23:24;13.00;99.90
24152;DHT22;12311;50.866;4.332;2023-11-19T03:25:50;13.00;99.90
24152;DHT22;12311;50.866;4.332;2023-11-19T03:28:16;13.00;99.90
24152;DHT22;12311;50.866;4.332;2023-11-19T03:30:42;13.00;99.90
24152;DHT22;12311;50.866;4.332;2023-11-19T03:33:07;12.90;99.90
24152;DHT22;12311;50.866;4.332;2023-11-19T03:35:33;13.00;99.90
24152;DHT22;12311;50.866;4.332;2023-11-19T03:37:59;13.00;99.90
24152;DHT22;12311;50.866;4.332;2023-11-19T03:40:25;13.10;99.90
24152;DHT22;12311;50.866;4.332;2023-11-19T03:42:51;13.00;99.90
24152;DHT22;12311;50.866;4.332;2023-11-19T03:45:16;12.90;99.90
24152;DHT22;12311;50.866;4.332;2023-11-19T03:47:42;12.80;99.90
24152;DHT22;12311;50.866;4.332;2023-11-19T03:50:08;12.80;99.90
24152;DHT22;12311;50.866;4.332;2023-11-19T03:52:35;12.80;99.90
24152;DHT22;12311;50.866;4.332;2023-11-19T03:55:01;12.80;99.90
24152;DHT22;12311;50.866;4.332;2023-11-19T03:57:27;12.70;99.90
24152;DHT22;12311;50.866;4.332;2023-11-19T03:59:53;12.70;99.90
24152;DHT22;12311;50.866;4.332;2023-11-19T04:02:21;12.70;99.90
24152;DHT22;12311;50.866;4.332;2023-11-19T04:04:47;12.80;99.90
24152;DHT22;12311;50.866;4.332;2023-11-19T04:07:13;12.80;99.90
24152;DHT22;12311;50.866;4.332;2023-11-19T04:09:39;12.80;99.90
24152;DHT22;12311;50.866;4.332;2023-11-19T04:12:05;12.80;99.90
24152;DHT22;12311;50.866;4.332;2023-11-19T04:14:31;12.80;99.90
24152;DHT22;12311;50.866;4.332;2023-11-19T04:16:56;12.90;99.90
24152;DHT22;12311;50.866;4.332;2023-11-19T04:19:22;12.90;99.90
24152;DHT22;12311;50.866;4.332;2023-11-19T04:21:48;12.80;99.90
24152;DHT22;12311;50.866;4.332;2023-11-19T04:24:13;12.80;99.90
24152;DHT22;12311;50.866;4.332;2023-11-19T04:26:43;12.80;99.90
24152;DHT22;12311;50.866;4.332;2023-11-19T04:29:12;12.80;99.90
24152;DHT22;12311;50.866;4.332;2023-11-19T04:31:39;12.90;99.90
24152;DHT22;12311;50.866;4.332;2023-11-19T04:34:05;12.80;99.90
24152;DHT22;12311;50.866;4.332;2023-11-19T04:36:35;12.80;99.90
24152;DHT22;12311;50.866;4.332;2023-11-19T04:39:01;12.80;99.90
24152;DHT22;12311;50.866;4.332;2023-11-19T04:41:27;12.70;99.90
24152;DHT22;12311;50.866;4.332;2023-11-19T04:43:53;12.70;99.90
24152;DHT22;12311;50.866;4.332;2023-11-19T04:46:19;12.70;99.90
24152;DHT22;12311;50.866;4.332;2023-11-19T04:48:45;12.80;99.90
24152;DHT22;12311;50.866;4.332;2023-11-19T04:51:11;12.50;99.90
24152;DHT22;12311;50.866;4.332;2023-11-19T04:53:36;12.60;99.90
24152;DHT22;12311;50.866;4.332;2023-11-19T04:56:08;12.60;99.90
24152;DHT22;12311;50.866;4.332;2023-11-19T04:58:34;12.60;99.90
24152;DHT22;12311;50.866;4.332;2023-11-19T05:01:01;12.60;99.90
24152;DHT22;12311;50.866;4.332;2023-11-19T05:03:27;12.70;99.90
24152;DHT22;12311;50.866;4.332;2023-11-19T05:05:52;12.60;99.90
24152;DHT22;12311;50.866;4.332;2023-11-19T05:08:19;12.60;99.90
24152;DHT22;12311;50.866;4.332;2023-11-19T05:10:44;12.60;99.90
24152;DHT22;12311;50.866;4.332;2023-11-19T05:13:10;12.50;99.90
24152;DHT22;12311;50.866;4.332;2023-11-19T05:15:36;12.60;99.90
24152;DHT22;12311;50.866;4.332;2023-11-19T05:18:01;12.50;99.90
24152;DHT22;12311;50.866;4.332;2023-11-19T05:20:27;12.50;99.90
24152;DHT22;12311;50.866;4.332;2023-11-19T05:22:53;12.40;99.90
24152;DHT22;12311;50.866;4.332;2023-11-19T05:25:18;12.50;99.90
24152;DHT22;12311;50.866;4.332;2023-11-19T05:27:45;12.40;99.90
24152;DHT22;12311;50.866;4.332;2023-11-19T05:30:11;12.40;99.90
24152;DHT22;12311;50.866;4.332;2023-11-19T05:32:37;12.40;99.90
24152;DHT22;12311;50.866;4.332;2023-11-19T05:35:03;12.40;99.90
24152;DHT22;12311;50.866;4.332;2023-11-19T05:37:29;12.30;99.90
24152;DHT22;12311;50.866;4.332;2023-11-19T05:39:54;12.40;99.90
24152;DHT22;12311;50.866;4.332;2023-11-19T05:42:20;12.40;99.90
24152;DHT22;12311;50.866;4.332;2023-11-19T05:44:46;12.50;99.90
24152;DHT22;12311;50.866;4.332;2023-11-19T05:47:11;12.50;99.90
24152;DHT22;12311;50.866;4.332;2023-11-19T05:49:37;12.50;99.90
24152;DHT22;12311;50.866;4.332;2023-11-19T05:52:04;12.50;99.90
24152;DHT22;12311;50.866;4.332;2023-11-19T05:54:33;12.40;99.90
24152;DHT22;12311;50.866;4.332;2023-11-19T05:57:04;12.50;99.90
24152;DHT22;12311;50.866;4.332;2023-11-19T05:59:30;12.40;99.90
24152;DHT22;12311;50.866;4.332;2023-11-19T06:01:57;12.40;99.90
24152;DHT22;12311;50.866;4.332;2023-11-19T06:04:23;12.30;99.90
24152;DHT22;12311;50.866;4.332;2023-11-19T06:06:48;12.30;99.90
24152;DHT22;12311;50.866;4.332;2023-11-19T06:09:14;12.20;99.90
24152;DHT22;12311;50.866;4.332;2023-11-19T06:11:40;12.20;99.90
24152;DHT22;12311;50.866;4.332;2023-11-19T06:14:06;12.20;99.90
24152;DHT22;12311;50.866;4.332;2023-11-19T06:16:32;12.10;99.90
24152;DHT22;12311;50.866;4.332;2023-11-19T06:18:58;12.10;99.90
24152;DHT22;12311;50.866;4.332;2023-11-19T06:21:24;12.10;99.90
24152;DHT22;12311;50.866;4.332;2023-11-19T06:23:50;12.00;99.90
24152;DHT22;12311;50.866;4.332;2023-11-19T06:26:17;12.00;99.90
24152;DHT22;12311;50.866;4.332;2023-11-19T06:28:43;12.00;99.90
24152;DHT22;12311;50.866;4.332;2023-11-19T06:31:10;12.00;99.90
24152;DHT22;12311;50.866;4.332;2023-11-19T06:33:35;12.00;99.90
24152;DHT22;12311;50.866;4.332;2023-11-19T06:36:01;11.90;99.90
24152;DHT22;12311;50.866;4.332;2023-11-19T06:38:27;11.90;99.90
24152;DHT22;12311;50.866;4.332;2023-11-19T06:40:52;11.90;99.90
24152;DHT22;12311;50.866;4.332;2023-11-19T06:43:18;11.90;99.90
24152;DHT22;12311;50.866;4.332;2023-11-19T06:45:44;11.90;99.90
24152;DHT22;12311;50.866;4.332;2023-11-19T06:48:09;11.90;99.90
24152;DHT22;12311;50.866;4.332;2023-11-19T06:50:35;11.80;99.90
24152;DHT22;12311;50.866;4.332;2023-11-19T06:53:01;11.80;99.90
24152;DHT22;12311;50.866;4.332;2023-11-19T06:55:27;11.80;99.90
24152;DHT22;12311;50.866;4.332;2023-11-19T06:57:53;11.80;99.90
24152;DHT22;12311;50.866;4.332;2023-11-19T07:00:18;11.80;99.90
24152;DHT22;12311;50.866;4.332;2023-11-19T07:02:44;11.80;99.90
24152;DHT22;12311;50.866;4.332;2023-11-19T07:05:10;11.80;99.90
24152;DHT22;12311;50.866;4.332;2023-11-19T07:07:39;11.80;99.90
24152;DHT22;12311;50.866;4.332;2023-11-19T07:10:06;11.80;99.90
24152;DHT22;12311;50.866;4.332;2023-11-19T07:12:34;11.80;99.90
24152;DHT22;12311;50.866;4.332;2023-11-19T07:15:01;11.80;99.90
24152;DHT22;12311;50.866;4.332;2023-11-19T07:17:30;11.90;99.90
24152;DHT22;12311;50.866;4.332;2023-11-19T07:19:55;11.90;99.90
24152;DHT22;12311;50.866;4.332;2023-11-19T07:22:24;12.00;99.90
24152;DHT22;12311;50.866;4.332;2023-11-19T07:24:50;12.00;99.90
24152;DHT22;12311;50.866;4.332;2023-11-19T07:27:16;11.90;99.90
24152;DHT22;12311;50.866;4.332;2023-11-19T07:29:43;11.90;99.90
24152;DHT22;12311;50.866;4.332;2023-11-19T07:32:10;11.90;99.90
24152;DHT22;12311;50.866;4.332;2023-11-19T07:34:36;11.90;99.90
24152;DHT22;12311;50.866;4.332;2023-11-19T07:37:02;11.80;99.90
24152;DHT22;12311;50.866;4.332;2023-11-19T07:39:28;11.80;99.90
24152;DHT22;12311;50.866;4.332;2023-11-19T07:41:54;11.80;99.90
24152;DHT22;12311;50.866;4.332;2023-11-19T07:44:20;11.90;99.90
24152;DHT22;12311;50.866;4.332;2023-11-19T07:46:47;11.90;99.90
24152;DHT22;12311;50.866;4.332;2023-11-19T07:49:13;11.90;99.90
24152;DHT22;12311;50.866;4.332;2023-11-19T07:51:39;11.80;99.90
24152;DHT22;12311;50.866;4.332;2023-11-19T07:54:06;11.90;99.90
24152;DHT22;12311;50.866;4.332;2023-11-19T07:56:35;11.90;99.90
24152;DHT22;12311;50.866;4.332;2023-11-19T07:59:03;12.00;99.90
24152;DHT22;12311;50.866;4.332;2023-11-19T08:01:29;11.90;99.90
24152;DHT22;12311;50.866;4.332;2023-11-19T08:03:55;11.90;99.90
24152;DHT22;12311;50.866;4.332;2023-11-19T08:06:21;11.90;99.90
24152;DHT22;12311;50.866;4.332;2023-11-19T08:08:47;11.90;99.90
24152;DHT22;12311;50.866;4.332;2023-11-19T08:11:13;11.90;99.90
24152;DHT22;12311;50.866;4.332;2023-11-19T08:13:39;11.90;99.90
24152;DHT22;12311;50.866;4.332;2023-11-19T08:16:05;12.00;99.90
24152;DHT22;12311;50.866;4.332;2023-11-19T08:18:31;12.00;99.90
24152;DHT22;12311;50.866;4.332;2023-11-19T08:20:57;12.00;99.90
24152;DHT22;12311;50.866;4.332;2023-11-19T08:23:24;12.00;99.90
24152;DHT22;12311;50.866;4.332;2023-11-19T08:25:51;12.00;99.90
24152;DHT22;12311;50.866;4.332;2023-11-19T08:28:17;12.10;99.90
24152;DHT22;12311;50.866;4.332;2023-11-19T08:30:43;12.20;99.90
24152;DHT22;12311;50.866;4.332;2023-11-19T08:33:10;12.30;99.90
24152;DHT22;12311;50.866;4.332;2023-11-19T08:35:35;12.30;99.90
24152;DHT22;12311;50.866;4.332;2023-11-19T08:38:01;12.40;99.90
24152;DHT22;12311;50.866;4.332;2023-11-19T08:40:27;12.40;99.90
24152;DHT22;12311;50.866;4.332;2023-11-19T08:42:53;12.50;99.90
24152;DHT22;12311;50.866;4.332;2023-11-19T08:45:19;12.40;99.90
24152;DHT22;12311;50.866;4.332;2023-11-19T08:47:44;12.30;99.90
24152;DHT22;12311;50.866;4.332;2023-11-19T08:50:11;12.20;99.90
24152;DHT22;12311;50.866;4.332;2023-11-19T08:52:37;12.20;99.90
24152;DHT22;12311;50.866;4.332;2023-11-19T08:55:03;12.00;99.90
24152;DHT22;12311;50.866;4.332;2023-11-19T08:57:31;11.90;99.90
24152;DHT22;12311;50.866;4.332;2023-11-19T08:59:56;11.90;99.90
24152;DHT22;12311;50.866;4.332;2023-11-19T09:02:22;11.90;99.90
24152;DHT22;12311;50.866;4.332;2023-11-19T09:04:48;12.00;99.90
24152;DHT22;12311;50.866;4.332;2023-11-19T09:07:13;11.90;99.90
24152;DHT22;12311;50.866;4.332;2023-11-19T09:09:39;12.00;99.90
24152;DHT22;12311;50.866;4.332;2023-11-19T09:12:05;12.00;99.90
24152;DHT22;12311;50.866;4.332;2023-11-19T09:14:31;12.00;99.90
24152;DHT22;12311;50.866;4.332;2023-11-19T09:16:57;12.10;99.90
24152;DHT22;12311;50.866;4.332;2023-11-19T09:19:24;12.00;99.90
24152;DHT22;12311;50.866;4.332;2023-11-19T09:21:50;12.00;99.90
24152;DHT22;12311;50.866;4.332;2023-11-19T09:24:16;12.10;99.90
24152;DHT22;12311;50.866;4.332;2023-11-19T09:26:41;12.10;99.90
24152;DHT22;12311;50.866;4.332;2023-11-19T09:29:08;12.10;99.90
24152;DHT22;12311;50.866;4.332;2023-11-19T09:31:33;12.10;99.90
24152;DHT22;12311;50.866;4.332;2023-11-19T09:34:00;12.10;99.90
24152;DHT22;12311;50.866;4.332;2023-11-19T09:36:25;12.20;99.90
24152;DHT22;12311;50.866;4.332;2023-11-19T09:38:51;12.20;99.90
24152;DHT22;12311;50.866;4.332;2023-11-19T09:41:17;12.30;99.90
24152;DHT22;12311;50.866;4.332;2023-11-19T09:43:45;12.40;99.90
24152;DHT22;12311;50.866;4.332;2023-11-19T09:46:12;12.50;99.90
24152;DHT22;12311;50.866;4.332;2023-11-19T09:48:39;12.60;99.90
24152;DHT22;12311;50.866;4.332;2023-11-19T09:51:10;12.80;99.90
24152;DHT22;12311;50.866;4.332;2023-11-19T09:53:37;12.90;99.90
24152;DHT22;12311;50.866;4.332;2023-11-19T09:56:04;13.00;99.90
24152;DHT22;12311;50.866;4.332;2023-11-19T09:58:30;13.00;99.90
24152;DHT22;12311;50.866;4.332;2023-11-19T10:00:57;13.10;99.90
24152;DHT22;12311;50.866;4.332;2023-11-19T10:03:35;13.00;99.90
24152;DHT22;12311;50.866;4.332;2023-11-19T10:06:03;13.00;99.90
24152;DHT22;12311;50.866;4.332;2023-11-19T10:08:30;13.10;99.90
24152;DHT22;12311;50.866;4.332;2023-11-19T10:10:55;13.10;99.90
24152;DHT22;12311;50.866;4.332;2023-11-19T10:13:26;13.10;99.90
24152;DHT22;12311;50.866;4.332;2023-11-19T10:15:53;13.10;99.90
24152;DHT22;12311;50.866;4.332;2023-11-19T10:18:18;13.20;99.90
24152;DHT22;12311;50.866;4.332;2023-11-19T10:20:49;13.20;99.90
24152;DHT22;12311;50.866;4.332;2023-11-19T10:23:14;13.20;99.90
24152;DHT22;12311;50.866;4.332;2023-11-19T10:25:40;13.20;99.90
24152;DHT22;12311;50.866;4.332;2023-11-19T10:28:06;13.30;99.90
24152;DHT22;12311;50.866;4.332;2023-11-19T10:30:31;13.50;99.90
24152;DHT22;12311;50.866;4.332;2023-11-19T10:33:09;13.60;99.90
24152;DHT22;12311;50.866;4.332;2023-11-19T10:35:56;13.50;99.90
24152;DHT22;12311;50.866;4.332;2023-11-19T10:38:23;13.60;99.90
24152;DHT22;12311;50.866;4.332;2023-11-19T10:40:50;13.50;99.90
24152;DHT22;12311;50.866;4.332;2023-11-19T10:43:20;13.50;99.90
24152;DHT22;12311;50.866;4.332;2023-11-19T10:45:48;13.50;99.90
24152;DHT22;12311;50.866;4.332;2023-11-19T10:48:14;13.40;99.90
24152;DHT22;12311;50.866;4.332;2023-11-19T10:50:41;13.20;99.90
24152;DHT22;12311;50.866;4.332;2023-11-19T10:53:08;13.20;99.90
24152;DHT22;12311;50.866;4.332;2023-11-19T10:55:36;13.40;99.90
24152;DHT22;12311;50.866;4.332;2023-11-19T10:58:08;13.30;99.90
24152;DHT22;12311;50.866;4.332;2023-11-19T11:00:44;13.30;99.90
24152;DHT22;12311;50.866;4.332;2023-11-19T11:03:21;13.30;99.90
24152;DHT22;12311;50.866;4.332;2023-11-19T11:05:51;13.50;99.90
24152;DHT22;12311;50.866;4.332;2023-11-19T11:08:18;13.60;99.90
24152;DHT22;12311;50.866;4.332;2023-11-19T11:10:55;13.60;99.90
24152;DHT22;12311;50.866;4.332;2023-11-19T11:13:23;13.60;99.90
24152;DHT22;12311;50.866;4.332;2023-11-19T11:15:57;13.50;99.90
24152;DHT22;12311;50.866;4.332;2023-11-19T11:18:26;13.40;99.90
24152;DHT22;12311;50.866;4.332;2023-11-19T11:20:57;13.40;99.90
24152;DHT22;12311;50.866;4.332;2023-11-19T11:26:39;13.40;99.90
24152;DHT22;12311;50.866;4.332;2023-11-19T11:29:20;13.40;99.90
24152;DHT22;12311;50.866;4.332;2023-11-19T11:32:40;13.40;99.90
24152;DHT22;12311;50.866;4.332;2023-11-19T11:38:07;13.50;99.90
24152;DHT22;12311;50.866;4.332;2023-11-19T11:40:33;13.70;99.90
24152;DHT22;12311;50.866;4.332;2023-11-19T11:42:59;13.80;99.90
24152;DHT22;12311;50.866;4.332;2023-11-19T11:45:38;13.90;99.90
24152;DHT22;12311;50.866;4.332;2023-11-19T11:48:15;14.00;99.90
24152;DHT22;12311;50.866;4.332;2023-11-19T11:50:53;14.20;99.90
24152;DHT22;12311;50.866;4.332;2023-11-19T11:53:20;14.50;99.90
24152;DHT22;12311;50.866;4.332;2023-11-19T11:58:20;14.80;99.90
24152;DHT22;12311;50.866;4.332;2023-11-19T12:00:48;14.90;99.90
24152;DHT22;12311;50.866;4.332;2023-11-19T12:03:15;14.90;99.90
24152;DHT22;12311;50.866;4.332;2023-11-19T12:05:44;14.80;99.90
24152;DHT22;12311;50.866;4.332;2023-11-19T12:08:11;14.80;99.90
24152;DHT22;12311;50.866;4.332;2023-11-19T12:10:50;14.50;99.90
24152;DHT22;12311;50.866;4.332;2023-11-19T12:13:17;14.40;99.90
24152;DHT22;12311;50.866;4.332;2023-11-19T12:18:31;14.00;99.90
24152;DHT22;12311;50.866;4.332;2023-11-19T12:20:59;14.10;99.90
24152;DHT22;12311;50.866;4.332;2023-11-19T12:23:31;14.00;99.90
24152;DHT22;12311;50.866;4.332;2023-11-19T12:25:58;13.90;99.90
24152;DHT22;12311;50.866;4.332;2023-11-19T12:28:24;13.80;99.90
24152;DHT22;12311;50.866;4.332;2023-11-19T12:30:53;13.70;99.90
24152;DHT22;12311;50.866;4.332;2023-11-19T12:33:19;13.70;99.90
24152;DHT22;12311;50.866;4.332;2023-11-19T12:35:46;13.60;99.90
24152;DHT22;12311;50.866;4.332;2023-11-19T12:38:22;13.60;99.90
24152;DHT22;12311;50.866;4.332;2023-11-19T12:41:08;13.40;99.90
24152;DHT22;12311;50.866;4.332;2023-11-19T12:43:37;13.40;99.90
24152;DHT22;12311;50.866;4.332;2023-11-19T12:46:20;13.40;99.90
24152;DHT22;12311;50.866;4.332;2023-11-19T12:48:49;13.50;99.90
24152;DHT22;12311;50.866;4.332;2023-11-19T12:51:16;13.50;99.90
24152;DHT22;12311;50.866;4.332;2023-11-19T12:53:52;13.40;99.90
24152;DHT22;12311;50.866;4.332;2023-11-19T12:56:23;13.50;99.90
24152;DHT22;12311;50.866;4.332;2023-11-19T12:58:49;13.60;99.90
24152;DHT22;12311;50.866;4.332;2023-11-19T13:01:17;13.50;99.90
24152;DHT22;12311;50.866;4.332;2023-11-19T13:03:43;13.50;99.90
24152;DHT22;12311;50.866;4.332;2023-11-19T13:06:10;13.60;99.90
24152;DHT22;12311;50.866;4.332;2023-11-19T13:08:38;13.50;99.90
24152;DHT22;12311;50.866;4.332;2023-11-19T13:11:04;13.50;99.90
24152;DHT22;12311;50.866;4.332;2023-11-19T13:13:30;13.50;99.90
24152;DHT22;12311;50.866;4.332;2023-11-19T13:16:03;13.60;99.90
24152;DHT22;12311;50.866;4.332;2023-11-19T13:18:31;13.70;99.90
24152;DHT22;12311;50.866;4.332;2023-11-19T13:20:57;13.70;99.90
24152;DHT22;12311;50.866;4.332;2023-11-19T13:23:23;13.70;99.90
24152;DHT22;12311;50.866;4.332;2023-11-19T13:25:48;13.70;99.90
24152;DHT22;12311;50.866;4.332;2023-11-19T13:28:14;13.70;99.90
24152;DHT22;12311;50.866;4.332;2023-11-19T13:30:40;13.70;99.90
24152;DHT22;12311;50.866;4.332;2023-11-19T13:33:05;13.60;99.90
24152;DHT22;12311;50.866;4.332;2023-11-19T13:35:31;13.60;99.90
24152;DHT22;12311;50.866;4.332;2023-11-19T13:37:57;13.50;99.90
24152;DHT22;12311;50.866;4.332;2023-11-19T13:40:23;13.50;99.90
24152;DHT22;12311;50.866;4.332;2023-11-19T13:42:50;13.50;99.90
24152;DHT22;12311;50.866;4.332;2023-11-19T13:45:16;13.50;99.90
24152;DHT22;12311;50.866;4.332;2023-11-19T13:47:44;13.50;99.90
24152;DHT22;12311;50.866;4.332;2023-11-19T13:50:15;13.60;99.90
24152;DHT22;12311;50.866;4.332;2023-11-19T13:52:43;13.50;99.90
24152;DHT22;12311;50.866;4.332;2023-11-19T13:55:10;13.40;99.90
24152;DHT22;12311;50.866;4.332;2023-11-19T13:57:37;13.40;99.90
24152;DHT22;12311;50.866;4.332;2023-11-19T14:00:04;13.30;99.90
24152;DHT22;12311;50.866;4.332;2023-11-19T14:02:46;13.40;99.90
24152;DHT22;12311;50.866;4.332;2023-11-19T14:05:13;13.40;99.90
24152;DHT22;12311;50.866;4.332;2023-11-19T14:07:39;13.30;99.90
24152;DHT22;12311;50.866;4.332;2023-11-19T14:10:06;13.30;99.90
24152;DHT22;12311;50.866;4.332;2023-11-19T14:12:35;13.30;99.90
24152;DHT22;12311;50.866;4.332;2023-11-19T14:15:08;13.30;99.90
24152;DHT22;12311;50.866;4.332;2023-11-19T14:17:41;13.30;99.90
24152;DHT22;12311;50.866;4.332;2023-11-19T14:20:06;13.40;99.90
24152;DHT22;12311;50.866;4.332;2023-11-19T14:22:42;13.30;99.90
24152;DHT22;12311;50.866;4.332;2023-11-19T14:25:09;13.40;99.90
24152;DHT22;12311;50.866;4.332;2023-11-19T14:27:38;13.30;99.90
24152;DHT22;12311;50.866;4.332;2023-11-19T14:30:09;13.20;99.90
24152;DHT22;12311;50.866;4.332;2023-11-19T14:32:42;13.00;99.90
24152;DHT22;12311;50.866;4.332;2023-11-19T14:35:10;12.80;99.90
24152;DHT22;12311;50.866;4.332;2023-11-19T14:37:36;12.70;99.90
24152;DHT22;12311;50.866;4.332;2023-11-19T14:40:02;12.60;99.90
24152;DHT22;12311;50.866;4.332;2023-11-19T14:42:31;12.50;99.90
24152;DHT22;12311;50.866;4.332;2023-11-19T14:44:57;12.50;99.90
24152;DHT22;12311;50.866;4.332;2023-11-19T14:47:24;12.50;99.90
24152;DHT22;12311;50.866;4.332;2023-11-19T14:49:50;12.60;99.90
24152;DHT22;12311;50.866;4.332;2023-11-19T14:52:15;12.60;99.90
24152;DHT22;12311;50.866;4.332;2023-11-19T14:54:41;12.60;99.90
24152;DHT22;12311;50.866;4.332;2023-11-19T14:57:07;12.60;99.90
24152;DHT22;12311;50.866;4.332;2023-11-19T14:59:36;12.60;99.90
24152;DHT22;12311;50.866;4.332;2023-11-19T15:02:03;12.70;99.90
24152;DHT22;12311;50.866;4.332;2023-11-19T15:04:29;12.70;99.90
24152;DHT22;12311;50.866;4.332;2023-11-19T15:06:58;12.70;99.90
24152;DHT22;12311;50.866;4.332;2023-11-19T15:09:24;12.70;99.90
24152;DHT22;12311;50.866;4.332;2023-11-19T15:11:50;12.70;99.90
24152;DHT22;12311;50.866;4.332;2023-11-19T15:14:16;12.70;99.90
24152;DHT22;12311;50.866;4.332;2023-11-19T15:16:45;12.70;99.90
24152;DHT22;12311;50.866;4.332;2023-11-19T15:19:11;12.70;99.90
24152;DHT22;12311;50.866;4.332;2023-11-19T15:21:41;12.70;99.90
24152;DHT22;12311;50.866;4.332;2023-11-19T15:24:08;12.80;99.90
24152;DHT22;12311;50.866;4.332;2023-11-19T15:26:34;12.80;99.90
24152;DHT22;12311;50.866;4.332;2023-11-19T15:29:01;12.90;99.90
24152;DHT22;12311;50.866;4.332;2023-11-19T15:31:26;12.90;99.90
24152;DHT22;12311;50.866;4.332;2023-11-19T15:33:52;13.00;99.90
24152;DHT22;12311;50.866;4.332;2023-11-19T15:36:18;13.00;99.90
24152;DHT22;12311;50.866;4.332;2023-11-19T15:38:44;13.00;99.90
24152;DHT22;12311;50.866;4.332;2023-11-19T15:41:10;13.10;99.90
24152;DHT22;12311;50.866;4.332;2023-11-19T15:43:35;13.10;99.90